sensor_id;sensor_type;location;lat;lon;timestamp;P1;durP1;ratioP1;P2;durP2;ratioP2
4313;SDS011;2170;48.794;9.182;2022-12-08T00:01:37;12.40;;;10.87;;
4313;SDS011;2170;48.794;9.182;2022-12-08T00:04:04;11.20;;;9.47;;
4313;SDS011;2170;48.794;9.182;2022-12-08T00:06:31;12.20;;;10.93;;
4313;SDS011;2170;48.794;9.182;2022-12-08T00:09:17;11.37;;;10.17;;
4313;SDS011;2170;48.794;9.182;2022-12-08T00:11:48;10.73;;;9.70;;
4313;SDS011;2170;48.794;9.182;2022-12-08T00:14:17;10.60;;;9.50;;
4313;SDS011;2170;48.794;9.182;2022-12-08T00:16:44;12.20;;;10.23;;
4313;SDS011;2170;48.794;9.182;2022-12-08T00:19:11;10.67;;;9.57;;
4313;SDS011;2170;48.794;9.182;2022-12-08T00:21:39;11.07;;;9.67;;
4313;SDS011;2170;48.794;9.182;2022-12-08T00:24:06;11.40;;;9.30;;
4313;SDS011;2170;48.794;9.182;2022-12-08T00:26:33;10.47;;;8.40;;
4313;SDS011;2170;48.794;9.182;2022-12-08T00:29:00;10.80;;;9.53;;
4313;SDS011;2170;48.794;9.182;2022-12-08T00:31:28;11.10;;;9.63;;
4313;SDS011;2170;48.794;9.182;2022-12-08T00:33:56;11.53;;;10.00;;
4313;SDS011;2170;48.794;9.182;2022-12-08T00:36:23;11.87;;;10.67;;
4313;SDS011;2170;48.794;9.182;2022-12-08T00:38:50;9.23;;;8.33;;
4313;SDS011;2170;48.794;9.182;2022-12-08T00:41:18;11.43;;;10.33;;
4313;SDS011;2170;48.794;9.182;2022-12-08T00:44:06;11.37;;;10.17;;
4313;SDS011;2170;48.794;9.182;2022-12-08T00:46:35;11.53;;;9.93;;
4313;SDS011;2170;48.794;9.182;2022-12-08T00:49:02;11.60;;;10.40;;
4313;SDS011;2170;48.794;9.182;2022-12-08T00:51:29;10.97;;;9.53;;
4313;SDS011;2170;48.794;9.182;2022-12-08T00:53:56;12.10;;;10.80;;
4313;SDS011;2170;48.794;9.182;2022-12-08T00:56:23;11.43;;;9.77;;
4313;SDS011;2170;48.794;9.182;2022-12-08T00:58:50;12.30;;;9.80;;
4313;SDS011;2170;48.794;9.182;2022-12-08T01:01:17;11.50;;;9.50;;
4313;SDS011;2170;48.794;9.182;2022-12-08T01:03:46;10.10;;;9.10;;
4313;SDS011;2170;48.794;9.182;2022-12-08T01:06:13;10.33;;;9.30;;
4313;SDS011;2170;48.794;9.182;2022-12-08T01:08:40;11.33;;;10.07;;
4313;SDS011;2170;48.794;9.182;2022-12-08T01:11:09;11.20;;;9.47;;
4313;SDS011;2170;48.794;9.182;2022-12-08T01:13:36;10.53;;;9.40;;
4313;SDS011;2170;48.794;9.182;2022-12-08T01:16:03;9.50;;;8.57;;
4313;SDS011;2170;48.794;9.182;2022-12-08T01:18:30;10.33;;;9.33;;
4313;SDS011;2170;48.794;9.182;2022-12-08T01:21:01;10.50;;;9.43;;
4313;SDS011;2170;48.794;9.182;2022-12-08T01:23:29;10.20;;;9.20;;
4313;SDS011;2170;48.794;9.182;2022-12-08T01:25:59;8.70;;;7.90;;
4313;SDS011;2170;48.794;9.182;2022-12-08T01:28:26;10.00;;;9.00;;
4313;SDS011;2170;48.794;9.182;2022-12-08T01:30:53;10.57;;;9.33;;
4313;SDS011;2170;48.794;9.182;2022-12-08T01:33:21;10.27;;;9.27;;
4313;SDS011;2170;48.794;9.182;2022-12-08T01:35:48;10.40;;;9.37;;
4313;SDS011;2170;48.794;9.182;2022-12-08T01:38:16;9.97;;;9.00;;
4313;SDS011;2170;48.794;9.182;2022-12-08T01:40:43;11.97;;;9.03;;
4313;SDS011;2170;48.794;9.182;2022-12-08T01:43:11;9.40;;;8.40;;
4313;SDS011;2170;48.794;9.182;2022-12-08T01:45:40;10.23;;;9.23;;
4313;SDS011;2170;48.794;9.182;2022-12-08T01:48:07;10.30;;;9.23;;
4313;SDS011;2170;48.794;9.182;2022-12-08T01:50:35;9.77;;;8.57;;
4313;SDS011;2170;48.794;9.182;2022-12-08T01:53:05;9.47;;;8.37;;
4313;SDS011;2170;48.794;9.182;2022-12-08T01:55:35;10.50;;;9.30;;
4313;SDS011;2170;48.794;9.182;2022-12-08T01:58:05;9.90;;;8.90;;
4313;SDS011;2170;48.794;9.182;2022-12-08T02:00:33;12.10;;;10.23;;
4313;SDS011;2170;48.794;9.182;2022-12-08T02:03:02;12.00;;;10.63;;
4313;SDS011;2170;48.794;9.182;2022-12-08T02:05:30;12.97;;;10.60;;
4313;SDS011;2170;48.794;9.182;2022-12-08T02:07:59;10.90;;;9.43;;
4313;SDS011;2170;48.794;9.182;2022-12-08T02:10:31;11.00;;;9.70;;
4313;SDS011;2170;48.794;9.182;2022-12-08T02:13:00;11.83;;;10.00;;
4313;SDS011;2170;48.794;9.182;2022-12-08T02:15:30;9.87;;;8.87;;
4313;SDS011;2170;48.794;9.182;2022-12-08T02:18:00;10.70;;;9.37;;
4313;SDS011;2170;48.794;9.182;2022-12-08T02:20:33;11.50;;;8.93;;
4313;SDS011;2170;48.794;9.182;2022-12-08T02:23:05;12.70;;;9.63;;
4313;SDS011;2170;48.794;9.182;2022-12-08T02:25:37;10.40;;;9.30;;
4313;SDS011;2170;48.794;9.182;2022-12-08T02:28:12;11.00;;;9.90;;
4313;SDS011;2170;48.794;9.182;2022-12-08T02:30:45;10.07;;;9.00;;
4313;SDS011;2170;48.794;9.182;2022-12-08T02:36:03;11.33;;;10.20;;
4313;SDS011;2170;48.794;9.182;2022-12-08T02:38:37;11.57;;;10.20;;
4313;SDS011;2170;48.794;9.182;2022-12-08T02:41:10;11.60;;;9.67;;
4313;SDS011;2170;48.794;9.182;2022-12-08T02:43:40;10.60;;;9.60;;
4313;SDS011;2170;48.794;9.182;2022-12-08T02:46:09;13.87;;;10.60;;
4313;SDS011;2170;48.794;9.182;2022-12-08T02:48:37;11.50;;;10.10;;
4313;SDS011;2170;48.794;9.182;2022-12-08T02:51:06;10.93;;;9.83;;
4313;SDS011;2170;48.794;9.182;2022-12-08T02:53:33;11.70;;;10.40;;
4313;SDS011;2170;48.794;9.182;2022-12-08T02:56:02;10.47;;;9.37;;
4313;SDS011;2170;48.794;9.182;2022-12-08T02:58:34;10.60;;;9.10;;
4313;SDS011;2170;48.794;9.182;2022-12-08T03:01:11;10.43;;;8.90;;
4313;SDS011;2170;48.794;9.182;2022-12-08T03:03:42;9.60;;;8.57;;
4313;SDS011;2170;48.794;9.182;2022-12-08T03:06:13;11.97;;;10.10;;
4313;SDS011;2170;48.794;9.182;2022-12-08T03:08:44;11.77;;;9.20;;
4313;SDS011;2170;48.794;9.182;2022-12-08T03:11:16;9.80;;;8.80;;
4313;SDS011;2170;48.794;9.182;2022-12-08T03:13:45;10.27;;;9.17;;
4313;SDS011;2170;48.794;9.182;2022-12-08T03:16:15;12.00;;;9.53;;
4313;SDS011;2170;48.794;9.182;2022-12-08T03:18:44;11.67;;;9.10;;
4313;SDS011;2170;48.794;9.182;2022-12-08T03:21:14;9.20;;;8.40;;
4313;SDS011;2170;48.794;9.182;2022-12-08T03:23:43;8.93;;;8.03;;
4313;SDS011;2170;48.794;9.182;2022-12-08T03:26:12;9.30;;;8.40;;
4313;SDS011;2170;48.794;9.182;2022-12-08T03:28:43;11.23;;;9.90;;
4313;SDS011;2170;48.794;9.182;2022-12-08T03:31:11;12.80;;;10.63;;
4313;SDS011;2170;48.794;9.182;2022-12-08T03:33:39;12.37;;;10.10;;
4313;SDS011;2170;48.794;9.182;2022-12-08T03:36:07;11.70;;;8.70;;
4313;SDS011;2170;48.794;9.182;2022-12-08T03:38:37;12.00;;;9.33;;
4313;SDS011;2170;48.794;9.182;2022-12-08T03:41:05;12.77;;;9.90;;
4313;SDS011;2170;48.794;9.182;2022-12-08T03:43:44;12.40;;;10.60;;
4313;SDS011;2170;48.794;9.182;2022-12-08T03:46:12;12.13;;;9.90;;
4313;SDS011;2170;48.794;9.182;2022-12-08T03:48:39;13.40;;;10.70;;
4313;SDS011;2170;48.794;9.182;2022-12-08T03:51:06;12.03;;;9.97;;
4313;SDS011;2170;48.794;9.182;2022-12-08T03:53:33;13.30;;;10.60;;
4313;SDS011;2170;48.794;9.182;2022-12-08T03:56:03;10.47;;;8.83;;
4313;SDS011;2170;48.794;9.182;2022-12-08T03:58:30;10.40;;;9.30;;
4313;SDS011;2170;48.794;9.182;2022-12-08T04:00:57;10.90;;;9.80;;
4313;SDS011;2170;48.794;9.182;2022-12-08T04:03:24;14.80;;;9.27;;
4313;SDS011;2170;48.794;9.182;2022-12-08T04:05:51;10.37;;;8.83;;
4313;SDS011;2170;48.794;9.182;2022-12-08T04:08:19;11.80;;;10.13;;
4313;SDS011;2170;48.794;9.182;2022-12-08T04:10:46;13.00;;;9.30;;
4313;SDS011;2170;48.794;9.182;2022-12-08T04:13:14;13.17;;;9.20;;
4313;SDS011;2170;48.794;9.182;2022-12-08T04:15:43;12.97;;;10.60;;
4313;SDS011;2170;48.794;9.182;2022-12-08T04:18:10;10.83;;;9.57;;
4313;SDS011;2170;48.794;9.182;2022-12-08T04:20:38;12.87;;;11.23;;
4313;SDS011;2170;48.794;9.182;2022-12-08T04:23:05;11.33;;;10.13;;
4313;SDS011;2170;48.794;9.182;2022-12-08T04:25:32;12.10;;;10.57;;
4313;SDS011;2170;48.794;9.182;2022-12-08T04:28:09;10.87;;;9.30;;
4313;SDS011;2170;48.794;9.182;2022-12-08T04:30:39;11.30;;;9.00;;
4313;SDS011;2170;48.794;9.182;2022-12-08T04:33:06;12.90;;;10.20;;
4313;SDS011;2170;48.794;9.182;2022-12-08T04:35:33;11.47;;;10.07;;
4313;SDS011;2170;48.794;9.182;2022-12-08T04:38:00;11.07;;;9.43;;
4313;SDS011;2170;48.794;9.182;2022-12-08T04:40:27;14.23;;;10.40;;
4313;SDS011;2170;48.794;9.182;2022-12-08T04:42:54;11.00;;;9.47;;
4313;SDS011;2170;48.794;9.182;2022-12-08T04:45:22;11.50;;;9.40;;
4313;SDS011;2170;48.794;9.182;2022-12-08T04:47:50;11.13;;;10.03;;
4313;SDS011;2170;48.794;9.182;2022-12-08T04:50:17;12.67;;;9.60;;
4313;SDS011;2170;48.794;9.182;2022-12-08T04:52:44;12.13;;;10.10;;
4313;SDS011;2170;48.794;9.182;2022-12-08T04:55:11;14.67;;;10.70;;
4313;SDS011;2170;48.794;9.182;2022-12-08T04:57:38;11.90;;;9.50;;
4313;SDS011;2170;48.794;9.182;2022-12-08T05:00:06;11.77;;;10.07;;
4313;SDS011;2170;48.794;9.182;2022-12-08T05:02:33;11.37;;;10.17;;
4313;SDS011;2170;48.794;9.182;2022-12-08T05:05:01;12.33;;;9.73;;
4313;SDS011;2170;48.794;9.182;2022-12-08T05:07:29;10.20;;;9.20;;
4313;SDS011;2170;48.794;9.182;2022-12-08T05:09:56;11.80;;;10.03;;
4313;SDS011;2170;48.794;9.182;2022-12-08T05:12:23;11.70;;;9.73;;
4313;SDS011;2170;48.794;9.182;2022-12-08T05:14:50;12.97;;;10.43;;
4313;SDS011;2170;48.794;9.182;2022-12-08T05:17:17;11.90;;;9.90;;
4313;SDS011;2170;48.794;9.182;2022-12-08T05:19:44;12.37;;;10.43;;
4313;SDS011;2170;48.794;9.182;2022-12-08T05:22:13;13.70;;;10.10;;
4313;SDS011;2170;48.794;9.182;2022-12-08T05:24:40;13.10;;;10.10;;
4313;SDS011;2170;48.794;9.182;2022-12-08T05:27:07;11.77;;;10.43;;
4313;SDS011;2170;48.794;9.182;2022-12-08T05:29:35;16.13;;;10.27;;
4313;SDS011;2170;48.794;9.182;2022-12-08T05:32:02;11.47;;;10.27;;
4313;SDS011;2170;48.794;9.182;2022-12-08T05:34:29;11.50;;;10.30;;
4313;SDS011;2170;48.794;9.182;2022-12-08T05:36:56;12.00;;;9.23;;
4313;SDS011;2170;48.794;9.182;2022-12-08T05:39:25;10.43;;;9.33;;
4313;SDS011;2170;48.794;9.182;2022-12-08T05:41:52;10.70;;;9.03;;
4313;SDS011;2170;48.794;9.182;2022-12-08T05:44:19;13.90;;;10.37;;
4313;SDS011;2170;48.794;9.182;2022-12-08T05:46:46;12.30;;;10.97;;
4313;SDS011;2170;48.794;9.182;2022-12-08T05:49:13;12.50;;;10.23;;
4313;SDS011;2170;48.794;9.182;2022-12-08T05:51:40;12.60;;;11.37;;
4313;SDS011;2170;48.794;9.182;2022-12-08T05:54:07;12.50;;;10.30;;
4313;SDS011;2170;48.794;9.182;2022-12-08T05:56:36;10.50;;;9.23;;
4313;SDS011;2170;48.794;9.182;2022-12-08T05:59:04;11.73;;;10.53;;
4313;SDS011;2170;48.794;9.182;2022-12-08T06:01:31;20.40;;;13.60;;
4313;SDS011;2170;48.794;9.182;2022-12-08T06:03:59;14.90;;;12.40;;
4313;SDS011;2170;48.794;9.182;2022-12-08T06:06:27;12.30;;;10.90;;
4313;SDS011;2170;48.794;9.182;2022-12-08T06:08:54;16.50;;;11.90;;
4313;SDS011;2170;48.794;9.182;2022-12-08T06:11:22;11.93;;;10.60;;
4313;SDS011;2170;48.794;9.182;2022-12-08T06:13:50;11.60;;;10.13;;
4313;SDS011;2170;48.794;9.182;2022-12-08T06:16:17;13.00;;;10.40;;
4313;SDS011;2170;48.794;9.182;2022-12-08T06:18:45;12.53;;;10.80;;
4313;SDS011;2170;48.794;9.182;2022-12-08T06:21:12;13.53;;;10.93;;
4313;SDS011;2170;48.794;9.182;2022-12-08T06:23:40;10.33;;;8.80;;
4313;SDS011;2170;48.794;9.182;2022-12-08T06:26:08;11.43;;;10.20;;
4313;SDS011;2170;48.794;9.182;2022-12-08T06:28:36;16.43;;;11.27;;
4313;SDS011;2170;48.794;9.182;2022-12-08T06:31:07;12.90;;;11.07;;
4313;SDS011;2170;48.794;9.182;2022-12-08T06:33:35;11.03;;;9.93;;
4313;SDS011;2170;48.794;9.182;2022-12-08T06:36:02;15.70;;;11.00;;
4313;SDS011;2170;48.794;9.182;2022-12-08T06:38:30;14.00;;;10.60;;
4313;SDS011;2170;48.794;9.182;2022-12-08T06:40:57;12.27;;;10.70;;
4313;SDS011;2170;48.794;9.182;2022-12-08T06:43:25;23.60;;;17.83;;
4313;SDS011;2170;48.794;9.182;2022-12-08T06:45:52;12.33;;;10.30;;
4313;SDS011;2170;48.794;9.182;2022-12-08T06:48:20;11.60;;;9.70;;
4313;SDS011;2170;48.794;9.182;2022-12-08T06:50:47;11.37;;;9.47;;
4313;SDS011;2170;48.794;9.182;2022-12-08T06:53:15;13.20;;;9.23;;
4313;SDS011;2170;48.794;9.182;2022-12-08T06:55:43;16.03;;;9.30;;
4313;SDS011;2170;48.794;9.182;2022-12-08T06:58:10;13.87;;;9.90;;
4313;SDS011;2170;48.794;9.182;2022-12-08T07:00:37;11.80;;;10.10;;
4313;SDS011;2170;48.794;9.182;2022-12-08T07:03:05;15.30;;;10.10;;
4313;SDS011;2170;48.794;9.182;2022-12-08T07:05:33;11.67;;;10.10;;
4313;SDS011;2170;48.794;9.182;2022-12-08T07:08:01;11.37;;;9.50;;
4313;SDS011;2170;48.794;9.182;2022-12-08T07:10:28;12.77;;;9.70;;
4313;SDS011;2170;48.794;9.182;2022-12-08T07:12:56;16.10;;;10.90;;
4313;SDS011;2170;48.794;9.182;2022-12-08T07:15:23;13.00;;;11.10;;
4313;SDS011;2170;48.794;9.182;2022-12-08T07:17:50;15.13;;;11.13;;
4313;SDS011;2170;48.794;9.182;2022-12-08T07:20:17;15.83;;;11.23;;
4313;SDS011;2170;48.794;9.182;2022-12-08T07:22:48;17.27;;;12.30;;
4313;SDS011;2170;48.794;9.182;2022-12-08T07:25:15;16.50;;;11.50;;
4313;SDS011;2170;48.794;9.182;2022-12-08T07:27:42;15.37;;;11.13;;
4313;SDS011;2170;48.794;9.182;2022-12-08T07:30:10;12.90;;;11.50;;
4313;SDS011;2170;48.794;9.182;2022-12-08T07:32:37;22.97;;;13.07;;
4313;SDS011;2170;48.794;9.182;2022-12-08T07:35:04;14.37;;;11.20;;
4313;SDS011;2170;48.794;9.182;2022-12-08T07:37:32;22.63;;;11.37;;
4313;SDS011;2170;48.794;9.182;2022-12-08T07:40:00;16.57;;;11.53;;
4313;SDS011;2170;48.794;9.182;2022-12-08T07:42:28;14.97;;;11.80;;
4313;SDS011;2170;48.794;9.182;2022-12-08T07:44:55;14.83;;;12.27;;
4313;SDS011;2170;48.794;9.182;2022-12-08T07:47:22;17.67;;;13.70;;
4313;SDS011;2170;48.794;9.182;2022-12-08T07:49:49;15.93;;;12.60;;
4313;SDS011;2170;48.794;9.182;2022-12-08T07:52:16;15.00;;;11.43;;
4313;SDS011;2170;48.794;9.182;2022-12-08T07:54:43;16.33;;;11.23;;
4313;SDS011;2170;48.794;9.182;2022-12-08T07:57:11;19.87;;;12.53;;
4313;SDS011;2170;48.794;9.182;2022-12-08T07:59:38;13.63;;;11.23;;
4313;SDS011;2170;48.794;9.182;2022-12-08T08:02:10;17.33;;;11.33;;
4313;SDS011;2170;48.794;9.182;2022-12-08T08:04:37;18.23;;;11.70;;
4313;SDS011;2170;48.794;9.182;2022-12-08T08:07:04;13.53;;;10.60;;
4313;SDS011;2170;48.794;9.182;2022-12-08T08:09:31;13.23;;;11.40;;
4313;SDS011;2170;48.794;9.182;2022-12-08T08:11:58;15.07;;;10.73;;
4313;SDS011;2170;48.794;9.182;2022-12-08T08:14:26;15.37;;;11.00;;
4313;SDS011;2170;48.794;9.182;2022-12-08T08:16:53;15.47;;;12.50;;
4313;SDS011;2170;48.794;9.182;2022-12-08T08:19:20;21.83;;;12.47;;
4313;SDS011;2170;48.794;9.182;2022-12-08T08:21:48;17.53;;;11.77;;
4313;SDS011;2170;48.794;9.182;2022-12-08T08:24:15;16.67;;;12.20;;
4313;SDS011;2170;48.794;9.182;2022-12-08T08:26:42;18.67;;;12.50;;
4313;SDS011;2170;48.794;9.182;2022-12-08T08:29:09;15.70;;;11.37;;
4313;SDS011;2170;48.794;9.182;2022-12-08T08:31:38;16.40;;;12.37;;
4313;SDS011;2170;48.794;9.182;2022-12-08T08:34:06;12.37;;;10.87;;
4313;SDS011;2170;48.794;9.182;2022-12-08T08:36:33;19.07;;;11.70;;
4313;SDS011;2170;48.794;9.182;2022-12-08T08:39:00;14.73;;;10.30;;
4313;SDS011;2170;48.794;9.182;2022-12-08T08:41:27;14.67;;;10.83;;
4313;SDS011;2170;48.794;9.182;2022-12-08T08:43:54;13.90;;;10.20;;
4313;SDS011;2170;48.794;9.182;2022-12-08T08:46:22;15.40;;;10.20;;
4313;SDS011;2170;48.794;9.182;2022-12-08T08:48:50;10.87;;;9.77;;
4313;SDS011;2170;48.794;9.182;2022-12-08T08:51:17;12.00;;;9.50;;
4313;SDS011;2170;48.794;9.182;2022-12-08T08:53:44;13.77;;;9.57;;
4313;SDS011;2170;48.794;9.182;2022-12-08T08:56:12;9.23;;;8.33;;
4313;SDS011;2170;48.794;9.182;2022-12-08T08:58:39;10.30;;;9.27;;
4313;SDS011;2170;48.794;9.182;2022-12-08T09:01:07;10.57;;;8.97;;
4313;SDS011;2170;48.794;9.182;2022-12-08T09:03:34;12.50;;;10.07;;
4313;SDS011;2170;48.794;9.182;2022-12-08T09:06:02;15.20;;;11.63;;
4313;SDS011;2170;48.794;9.182;2022-12-08T09:08:29;15.23;;;11.07;;
4313;SDS011;2170;48.794;9.182;2022-12-08T09:10:56;15.97;;;11.83;;
4313;SDS011;2170;48.794;9.182;2022-12-08T09:13:24;12.73;;;10.63;;
4313;SDS011;2170;48.794;9.182;2022-12-08T09:15:51;13.37;;;10.30;;
4313;SDS011;2170;48.794;9.182;2022-12-08T09:18:18;11.50;;;10.30;;
4313;SDS011;2170;48.794;9.182;2022-12-08T09:20:45;13.60;;;9.47;;
4313;SDS011;2170;48.794;9.182;2022-12-08T09:23:13;13.47;;;10.97;;
4313;SDS011;2170;48.794;9.182;2022-12-08T09:25:42;11.43;;;10.33;;
4313;SDS011;2170;48.794;9.182;2022-12-08T09:28:09;14.27;;;10.20;;
4313;SDS011;2170;48.794;9.182;2022-12-08T09:30:36;12.90;;;9.80;;
4313;SDS011;2170;48.794;9.182;2022-12-08T09:33:04;17.83;;;11.93;;
4313;SDS011;2170;48.794;9.182;2022-12-08T09:35:31;16.67;;;13.20;;
4313;SDS011;2170;48.794;9.182;2022-12-08T09:37:59;21.27;;;12.73;;
4313;SDS011;2170;48.794;9.182;2022-12-08T09:40:27;17.47;;;11.83;;
4313;SDS011;2170;48.794;9.182;2022-12-08T09:42:57;17.80;;;11.30;;
4313;SDS011;2170;48.794;9.182;2022-12-08T09:45:27;14.90;;;10.80;;
4313;SDS011;2170;48.794;9.182;2022-12-08T09:47:57;13.30;;;9.60;;
4313;SDS011;2170;48.794;9.182;2022-12-08T09:50:28;12.10;;;10.87;;
4313;SDS011;2170;48.794;9.182;2022-12-08T09:52:57;13.63;;;11.83;;
4313;SDS011;2170;48.794;9.182;2022-12-08T09:55:31;13.10;;;10.57;;
4313;SDS011;2170;48.794;9.182;2022-12-08T09:58:02;12.10;;;10.77;;
4313;SDS011;2170;48.794;9.182;2022-12-08T10:00:30;16.03;;;10.10;;
4313;SDS011;2170;48.794;9.182;2022-12-08T10:02:58;22.47;;;13.00;;
4313;SDS011;2170;48.794;9.182;2022-12-08T10:05:25;16.27;;;10.80;;
4313;SDS011;2170;48.794;9.182;2022-12-08T10:07:57;12.00;;;9.17;;
4313;SDS011;2170;48.794;9.182;2022-12-08T10:10:30;11.37;;;10.10;;
4313;SDS011;2170;48.794;9.182;2022-12-08T10:13:02;8.73;;;7.93;;
4313;SDS011;2170;48.794;9.182;2022-12-08T10:15:37;7.00;;;6.37;;
4313;SDS011;2170;48.794;9.182;2022-12-08T10:18:09;10.43;;;8.10;;
4313;SDS011;2170;48.794;9.182;2022-12-08T10:20:39;7.47;;;6.80;;
4313;SDS011;2170;48.794;9.182;2022-12-08T10:23:07;9.90;;;6.83;;
4313;SDS011;2170;48.794;9.182;2022-12-08T10:25:38;6.87;;;6.27;;
4313;SDS011;2170;48.794;9.182;2022-12-08T10:28:07;7.60;;;6.70;;
4313;SDS011;2170;48.794;9.182;2022-12-08T10:30:34;7.03;;;5.90;;
4313;SDS011;2170;48.794;9.182;2022-12-08T10:33:01;7.47;;;6.77;;
4313;SDS011;2170;48.794;9.182;2022-12-08T10:35:40;7.77;;;6.77;;
4313;SDS011;2170;48.794;9.182;2022-12-08T10:38:14;8.90;;;7.20;;
4313;SDS011;2170;48.794;9.182;2022-12-08T10:40:43;8.47;;;7.10;;
4313;SDS011;2170;48.794;9.182;2022-12-08T10:43:12;7.20;;;6.50;;
4313;SDS011;2170;48.794;9.182;2022-12-08T10:45:40;7.17;;;6.40;;
4313;SDS011;2170;48.794;9.182;2022-12-08T10:48:12;7.20;;;6.60;;
4313;SDS011;2170;48.794;9.182;2022-12-08T10:50:41;7.93;;;7.13;;
4313;SDS011;2170;48.794;9.182;2022-12-08T10:53:10;7.57;;;6.97;;
4313;SDS011;2170;48.794;9.182;2022-12-08T10:55:39;9.40;;;8.60;;
4313;SDS011;2170;48.794;9.182;2022-12-08T11:01:01;7.37;;;6.67;;
4313;SDS011;2170;48.794;9.182;2022-12-08T11:03:29;7.10;;;6.40;;
4313;SDS011;2170;48.794;9.182;2022-12-08T11:05:56;7.90;;;6.63;;
4313;SDS011;2170;48.794;9.182;2022-12-08T11:08:24;7.77;;;7.07;;
4313;SDS011;2170;48.794;9.182;2022-12-08T11:10:52;8.07;;;7.30;;
4313;SDS011;2170;48.794;9.182;2022-12-08T11:13:20;7.80;;;6.33;;
4313;SDS011;2170;48.794;9.182;2022-12-08T11:15:47;6.27;;;5.67;;
4313;SDS011;2170;48.794;9.182;2022-12-08T11:18:24;6.10;;;5.60;;
4313;SDS011;2170;48.794;9.182;2022-12-08T11:20:55;6.50;;;5.90;;
4313;SDS011;2170;48.794;9.182;2022-12-08T11:23:23;6.70;;;6.00;;
4313;SDS011;2170;48.794;9.182;2022-12-08T11:25:50;9.03;;;6.47;;
4313;SDS011;2170;48.794;9.182;2022-12-08T11:28:21;6.93;;;6.20;;
4313;SDS011;2170;48.794;9.182;2022-12-08T11:30:49;7.80;;;6.50;;
4313;SDS011;2170;48.794;9.182;2022-12-08T11:33:20;9.60;;;5.90;;
4313;SDS011;2170;48.794;9.182;2022-12-08T11:35:50;6.50;;;6.00;;
4313;SDS011;2170;48.794;9.182;2022-12-08T11:38:19;6.60;;;6.00;;
4313;SDS011;2170;48.794;9.182;2022-12-08T11:40:48;6.77;;;5.70;;
4313;SDS011;2170;48.794;9.182;2022-12-08T11:43:16;8.20;;;6.03;;
4313;SDS011;2170;48.794;9.182;2022-12-08T11:45:44;6.77;;;6.00;;
4313;SDS011;2170;48.794;9.182;2022-12-08T11:48:14;5.77;;;5.27;;
4313;SDS011;2170;48.794;9.182;2022-12-08T11:50:44;5.90;;;5.30;;
4313;SDS011;2170;48.794;9.182;2022-12-08T11:53:18;5.40;;;4.90;;
4313;SDS011;2170;48.794;9.182;2022-12-08T11:55:49;5.77;;;5.00;;
4313;SDS011;2170;48.794;9.182;2022-12-08T11:58:18;8.43;;;6.30;;
4313;SDS011;2170;48.794;9.182;2022-12-08T12:00:47;5.50;;;4.97;;
4313;SDS011;2170;48.794;9.182;2022-12-08T12:03:16;8.30;;;5.80;;
4313;SDS011;2170;48.794;9.182;2022-12-08T12:05:48;6.13;;;5.53;;
4313;SDS011;2170;48.794;9.182;2022-12-08T12:08:23;4.97;;;4.57;;
4313;SDS011;2170;48.794;9.182;2022-12-08T12:11:00;5.90;;;5.40;;
4313;SDS011;2170;48.794;9.182;2022-12-08T12:13:37;5.90;;;4.73;;
4313;SDS011;2170;48.794;9.182;2022-12-08T12:16:10;5.53;;;4.97;;
4313;SDS011;2170;48.794;9.182;2022-12-08T12:18:40;5.50;;;5.00;;
4313;SDS011;2170;48.794;9.182;2022-12-08T12:21:11;16.17;;;13.23;;
4313;SDS011;2170;48.794;9.182;2022-12-08T12:23:42;5.77;;;5.27;;
4313;SDS011;2170;48.794;9.182;2022-12-08T12:26:15;6.40;;;5.20;;
4313;SDS011;2170;48.794;9.182;2022-12-08T12:28:44;6.27;;;5.67;;
4313;SDS011;2170;48.794;9.182;2022-12-08T12:31:16;6.03;;;5.53;;
4313;SDS011;2170;48.794;9.182;2022-12-08T12:33:44;6.03;;;5.40;;
4313;SDS011;2170;48.794;9.182;2022-12-08T12:36:12;5.60;;;5.10;;
4313;SDS011;2170;48.794;9.182;2022-12-08T12:38:42;7.60;;;6.07;;
4313;SDS011;2170;48.794;9.182;2022-12-08T12:41:33;6.27;;;5.67;;
4313;SDS011;2170;48.794;9.182;2022-12-08T12:47:02;6.47;;;4.83;;
4313;SDS011;2170;48.794;9.182;2022-12-08T12:49:47;5.60;;;5.10;;
4313;SDS011;2170;48.794;9.182;2022-12-08T12:58:02;6.23;;;5.63;;
4313;SDS011;2170;48.794;9.182;2022-12-08T13:00:29;5.80;;;5.30;;
4313;SDS011;2170;48.794;9.182;2022-12-08T13:02:56;6.57;;;5.90;;
4313;SDS011;2170;48.794;9.182;2022-12-08T13:05:24;6.83;;;6.13;;
4313;SDS011;2170;48.794;9.182;2022-12-08T13:07:53;5.80;;;5.30;;
4313;SDS011;2170;48.794;9.182;2022-12-08T13:10:22;5.40;;;5.00;;
4313;SDS011;2170;48.794;9.182;2022-12-08T13:13:13;6.00;;;5.50;;
4313;SDS011;2170;48.794;9.182;2022-12-08T13:15:46;6.50;;;5.30;;
4313;SDS011;2170;48.794;9.182;2022-12-08T13:18:15;5.90;;;5.40;;
4313;SDS011;2170;48.794;9.182;2022-12-08T13:20:45;6.27;;;5.77;;
4313;SDS011;2170;48.794;9.182;2022-12-08T13:23:26;7.13;;;6.43;;
4313;SDS011;2170;48.794;9.182;2022-12-08T13:31:40;6.90;;;6.10;;
4313;SDS011;2170;48.794;9.182;2022-12-08T13:34:10;6.53;;;5.97;;
4313;SDS011;2170;48.794;9.182;2022-12-08T13:36:39;6.90;;;6.30;;
4313;SDS011;2170;48.794;9.182;2022-12-08T13:39:09;6.00;;;5.40;;
4313;SDS011;2170;48.794;9.182;2022-12-08T13:41:42;7.43;;;6.27;;
4313;SDS011;2170;48.794;9.182;2022-12-08T13:44:11;7.80;;;5.80;;
4313;SDS011;2170;48.794;9.182;2022-12-08T13:46:42;6.97;;;6.20;;
4313;SDS011;2170;48.794;9.182;2022-12-08T13:49:10;6.80;;;6.10;;
4313;SDS011;2170;48.794;9.182;2022-12-08T13:51:41;6.07;;;5.57;;
4313;SDS011;2170;48.794;9.182;2022-12-08T13:54:12;7.53;;;5.23;;
4313;SDS011;2170;48.794;9.182;2022-12-08T13:56:41;6.20;;;5.60;;
4313;SDS011;2170;48.794;9.182;2022-12-08T13:59:22;9.80;;;7.90;;
4313;SDS011;2170;48.794;9.182;2022-12-08T14:01:53;6.63;;;5.97;;
4313;SDS011;2170;48.794;9.182;2022-12-08T14:04:21;9.80;;;5.73;;
4313;SDS011;2170;48.794;9.182;2022-12-08T14:06:49;7.10;;;5.60;;
4313;SDS011;2170;48.794;9.182;2022-12-08T14:09:18;7.03;;;6.23;;
4313;SDS011;2170;48.794;9.182;2022-12-08T14:11:46;7.33;;;6.57;;
4313;SDS011;2170;48.794;9.182;2022-12-08T14:14:17;7.73;;;6.27;;
4313;SDS011;2170;48.794;9.182;2022-12-08T14:16:48;9.93;;;6.37;;
4313;SDS011;2170;48.794;9.182;2022-12-08T14:19:18;6.90;;;6.07;;
4313;SDS011;2170;48.794;9.182;2022-12-08T14:21:46;10.77;;;6.70;;
4313;SDS011;2170;48.794;9.182;2022-12-08T14:24:13;11.67;;;7.60;;
4313;SDS011;2170;48.794;9.182;2022-12-08T14:26:40;7.13;;;6.30;;
4313;SDS011;2170;48.794;9.182;2022-12-08T14:29:08;7.20;;;6.07;;
4313;SDS011;2170;48.794;9.182;2022-12-08T14:31:35;6.73;;;6.13;;
4313;SDS011;2170;48.794;9.182;2022-12-08T14:34:02;7.13;;;6.20;;
4313;SDS011;2170;48.794;9.182;2022-12-08T14:36:31;7.30;;;6.57;;
4313;SDS011;2170;48.794;9.182;2022-12-08T14:38:58;7.57;;;6.63;;
4313;SDS011;2170;48.794;9.182;2022-12-08T14:41:25;7.40;;;6.70;;
4313;SDS011;2170;48.794;9.182;2022-12-08T14:43:57;6.97;;;6.37;;
4313;SDS011;2170;48.794;9.182;2022-12-08T14:46:25;8.50;;;7.70;;
4313;SDS011;2170;48.794;9.182;2022-12-08T14:48:52;7.00;;;6.30;;
4313;SDS011;2170;48.794;9.182;2022-12-08T14:51:22;7.73;;;6.20;;
4313;SDS011;2170;48.794;9.182;2022-12-08T14:53:53;7.23;;;6.00;;
4313;SDS011;2170;48.794;9.182;2022-12-08T14:56:23;7.07;;;5.60;;
4313;SDS011;2170;48.794;9.182;2022-12-08T14:59:00;6.90;;;6.20;;
4313;SDS011;2170;48.794;9.182;2022-12-08T15:01:28;8.97;;;7.37;;
4313;SDS011;2170;48.794;9.182;2022-12-08T15:03:58;6.60;;;6.00;;
4313;SDS011;2170;48.794;9.182;2022-12-08T15:06:25;8.93;;;6.50;;
4313;SDS011;2170;48.794;9.182;2022-12-08T15:08:56;10.60;;;5.10;;
4313;SDS011;2170;48.794;9.182;2022-12-08T15:11:25;6.43;;;5.83;;
4313;SDS011;2170;48.794;9.182;2022-12-08T15:13:53;7.23;;;6.20;;
4313;SDS011;2170;48.794;9.182;2022-12-08T15:16:23;6.77;;;6.17;;
4313;SDS011;2170;48.794;9.182;2022-12-08T15:18:58;7.53;;;6.40;;
4313;SDS011;2170;48.794;9.182;2022-12-08T15:21:27;7.20;;;6.60;;
4313;SDS011;2170;48.794;9.182;2022-12-08T15:23:56;7.20;;;6.60;;
4313;SDS011;2170;48.794;9.182;2022-12-08T15:26:23;7.70;;;6.67;;
4313;SDS011;2170;48.794;9.182;2022-12-08T15:28:51;7.00;;;6.30;;
4313;SDS011;2170;48.794;9.182;2022-12-08T15:31:19;7.07;;;6.10;;